sensor_id;sensor_type;location;lat;lon;timestamp;P1;durP1;ratioP1;P2;durP2;ratioP2
7160;SDS011;3622;53.576;9.978;2023-01-28T00:00:08;2.13;;;1.40;;
7160;SDS011;3622;53.576;9.978;2023-01-28T00:02:34;2.80;;;1.67;;
7160;SDS011;3622;53.576;9.978;2023-01-28T00:05:01;1.40;;;1.30;;
7160;SDS011;3622;53.576;9.978;2023-01-28T00:07:27;1.30;;;1.20;;
7160;SDS011;3622;53.576;9.978;2023-01-28T00:09:53;0.83;;;0.80;;
7160;SDS011;3622;53.576;9.978;2023-01-28T00:12:19;2.07;;;1.23;;
7160;SDS011;3622;53.576;9.978;2023-01-28T00:14:45;3.80;;;1.20;;
7160;SDS011;3622;53.576;9.978;2023-01-28T00:17:12;1.10;;;1.00;;
7160;SDS011;3622;53.576;9.978;2023-01-28T00:19:38;1.10;;;0.80;;
7160;SDS011;3622;53.576;9.978;2023-01-28T00:22:04;1.47;;;0.90;;
7160;SDS011;3622;53.576;9.978;2023-01-28T00:24:30;1.20;;;1.07;;
7160;SDS011;3622;53.576;9.978;2023-01-28T00:26:56;1.23;;;1.13;;
7160;SDS011;3622;53.576;9.978;2023-01-28T00:29:22;1.00;;;0.90;;
7160;SDS011;3622;53.576;9.978;2023-01-28T00:31:48;0.93;;;0.93;;
7160;SDS011;3622;53.576;9.978;2023-01-28T00:34:14;1.03;;;0.93;;
7160;SDS011;3622;53.576;9.978;2023-01-28T00:36:40;2.50;;;1.37;;
7160;SDS011;3622;53.576;9.978;2023-01-28T00:39:06;1.30;;;1.17;;
7160;SDS011;3622;53.576;9.978;2023-01-28T00:41:32;1.93;;;1.23;;
7160;SDS011;3622;53.576;9.978;2023-01-28T00:43:58;3.03;;;0.97;;
7160;SDS011;3622;53.576;9.978;2023-01-28T00:46:24;1.20;;;1.10;;
7160;SDS011;3622;53.576;9.978;2023-01-28T00:48:51;1.27;;;0.90;;
7160;SDS011;3622;53.576;9.978;2023-01-28T00:51:17;1.53;;;0.80;;
7160;SDS011;3622;53.576;9.978;2023-01-28T00:53:46;3.90;;;1.10;;
7160;SDS011;3622;53.576;9.978;2023-01-28T00:56:13;2.07;;;1.00;;
7160;SDS011;3622;53.576;9.978;2023-01-28T00:58:39;1.70;;;1.43;;
7160;SDS011;3622;53.576;9.978;2023-01-28T01:01:39;1.93;;;1.10;;
7160;SDS011;3622;53.576;9.978;2023-01-28T01:03:58;3.53;;;2.60;;
7160;SDS011;3622;53.576;9.978;2023-01-28T01:06:32;3.07;;;2.50;;
7160;SDS011;3622;53.576;9.978;2023-01-28T01:08:59;1.80;;;1.70;;
7160;SDS011;3622;53.576;9.978;2023-01-28T01:11:25;3.97;;;2.70;;
7160;SDS011;3622;53.576;9.978;2023-01-28T01:13:55;3.07;;;1.13;;
7160;SDS011;3622;53.576;9.978;2023-01-28T01:16:22;2.70;;;1.80;;
7160;SDS011;3622;53.576;9.978;2023-01-28T01:18:49;2.03;;;1.83;;
7160;SDS011;3622;53.576;9.978;2023-01-28T01:21:16;3.87;;;1.60;;
7160;SDS011;3622;53.576;9.978;2023-01-28T01:23:43;4.23;;;0.80;;
7160;SDS011;3622;53.576;9.978;2023-01-28T01:26:09;4.40;;;1.43;;
7160;SDS011;3622;53.576;9.978;2023-01-28T01:28:35;1.30;;;1.13;;
7160;SDS011;3622;53.576;9.978;2023-01-28T01:31:03;1.93;;;1.30;;
7160;SDS011;3622;53.576;9.978;2023-01-28T01:33:29;3.73;;;1.03;;
7160;SDS011;3622;53.576;9.978;2023-01-28T01:35:56;2.20;;;1.20;;
7160;SDS011;3622;53.576;9.978;2023-01-28T01:38:22;1.23;;;1.13;;
7160;SDS011;3622;53.576;9.978;2023-01-28T01:40:48;2.23;;;1.17;;
7160;SDS011;3622;53.576;9.978;2023-01-28T01:43:15;1.40;;;1.30;;
7160;SDS011;3622;53.576;9.978;2023-01-28T01:45:41;1.30;;;1.20;;
7160;SDS011;3622;53.576;9.978;2023-01-28T01:48:12;2.40;;;1.03;;
7160;SDS011;3622;53.576;9.978;2023-01-28T01:50:41;1.10;;;1.00;;
7160;SDS011;3622;53.576;9.978;2023-01-28T01:53:12;0.93;;;0.83;;
7160;SDS011;3622;53.576;9.978;2023-01-28T01:55:40;1.60;;;1.40;;
7160;SDS011;3622;53.576;9.978;2023-01-28T01:58:07;2.17;;;1.17;;
7160;SDS011;3622;53.576;9.978;2023-01-28T02:00:34;1.10;;;1.00;;
7160;SDS011;3622;53.576;9.978;2023-01-28T02:03:00;2.17;;;1.40;;
7160;SDS011;3622;53.576;9.978;2023-01-28T02:05:26;1.10;;;1.00;;
7160;SDS011;3622;53.576;9.978;2023-01-28T02:07:53;1.17;;;1.07;;
7160;SDS011;3622;53.576;9.978;2023-01-28T02:10:19;2.60;;;1.40;;
7160;SDS011;3622;53.576;9.978;2023-01-28T02:12:52;1.43;;;1.33;;
7160;SDS011;3622;53.576;9.978;2023-01-28T02:15:20;1.50;;;1.40;;
7160;SDS011;3622;53.576;9.978;2023-01-28T02:17:49;1.93;;;1.70;;
7160;SDS011;3622;53.576;9.978;2023-01-28T02:20:18;1.50;;;1.40;;
7160;SDS011;3622;53.576;9.978;2023-01-28T02:30:30;1.67;;;1.30;;
7160;SDS011;3622;53.576;9.978;2023-01-28T02:32:59;1.30;;;1.20;;
7160;SDS011;3622;53.576;9.978;2023-01-28T02:38:28;1.50;;;1.40;;
7160;SDS011;3622;53.576;9.978;2023-01-28T02:40:59;1.57;;;0.90;;
7160;SDS011;3622;53.576;9.978;2023-01-28T02:46:03;1.40;;;1.30;;
7160;SDS011;3622;53.576;9.978;2023-01-28T02:48:53;1.50;;;1.40;;
7160;SDS011;3622;53.576;9.978;2023-01-28T02:56:42;1.07;;;1.07;;
7160;SDS011;3622;53.576;9.978;2023-01-28T02:59:17;1.57;;;1.47;;
7160;SDS011;3622;53.576;9.978;2023-01-28T03:04:46;1.60;;;1.50;;
7160;SDS011;3622;53.576;9.978;2023-01-28T03:07:14;1.47;;;1.37;;
7160;SDS011;3622;53.576;9.978;2023-01-28T03:09:41;1.20;;;1.10;;
7160;SDS011;3622;53.576;9.978;2023-01-28T03:14:54;1.20;;;1.10;;
7160;SDS011;3622;53.576;9.978;2023-01-28T03:17:47;2.57;;;2.47;;
7160;SDS011;3622;53.576;9.978;2023-01-28T03:20:45;2.60;;;2.40;;
7160;SDS011;3622;53.576;9.978;2023-01-28T03:23:33;5.73;;;2.73;;
7160;SDS011;3622;53.576;9.978;2023-01-28T03:26:21;3.07;;;2.87;;
7160;SDS011;3622;53.576;9.978;2023-01-28T03:29:09;3.47;;;2.40;;
7160;SDS011;3622;53.576;9.978;2023-01-28T03:31:54;2.33;;;2.23;;
7160;SDS011;3622;53.576;9.978;2023-01-28T03:34:41;3.77;;;2.80;;
7160;SDS011;3622;53.576;9.978;2023-01-28T03:37:26;2.60;;;2.50;;
7160;SDS011;3622;53.576;9.978;2023-01-28T03:39:53;2.93;;;2.73;;
7160;SDS011;3622;53.576;9.978;2023-01-28T03:42:22;2.97;;;2.70;;
7160;SDS011;3622;53.576;9.978;2023-01-28T03:44:48;3.63;;;2.63;;
7160;SDS011;3622;53.576;9.978;2023-01-28T03:47:21;4.17;;;2.67;;
7160;SDS011;3622;53.576;9.978;2023-01-28T03:49:48;2.50;;;2.30;;
7160;SDS011;3622;53.576;9.978;2023-01-28T03:52:15;4.00;;;2.43;;
7160;SDS011;3622;53.576;9.978;2023-01-28T03:54:42;3.83;;;2.70;;
7160;SDS011;3622;53.576;9.978;2023-01-28T03:57:08;3.40;;;2.70;;
7160;SDS011;3622;53.576;9.978;2023-01-28T03:59:34;2.53;;;2.33;;
7160;SDS011;3622;53.576;9.978;2023-01-28T04:02:00;2.40;;;2.30;;
7160;SDS011;3622;53.576;9.978;2023-01-28T04:04:27;2.30;;;2.20;;
7160;SDS011;3622;53.576;9.978;2023-01-28T04:06:54;2.73;;;2.53;;
7160;SDS011;3622;53.576;9.978;2023-01-28T04:09:21;2.47;;;2.30;;
7160;SDS011;3622;53.576;9.978;2023-01-28T04:11:47;3.37;;;3.07;;
7160;SDS011;3622;53.576;9.978;2023-01-28T04:14:14;3.13;;;3.03;;
7160;SDS011;3622;53.576;9.978;2023-01-28T04:16:40;4.50;;;2.77;;
7160;SDS011;3622;53.576;9.978;2023-01-28T04:19:07;3.10;;;2.80;;
7160;SDS011;3622;53.576;9.978;2023-01-28T04:21:33;3.53;;;3.20;;
7160;SDS011;3622;53.576;9.978;2023-01-28T04:23:59;6.20;;;2.37;;
7160;SDS011;3622;53.576;9.978;2023-01-28T04:26:26;3.63;;;2.60;;
7160;SDS011;3622;53.576;9.978;2023-01-28T04:28:52;2.93;;;2.73;;
7160;SDS011;3622;53.576;9.978;2023-01-28T04:31:17;2.83;;;2.63;;
7160;SDS011;3622;53.576;9.978;2023-01-28T04:33:43;2.73;;;2.40;;
7160;SDS011;3622;53.576;9.978;2023-01-28T04:36:09;3.20;;;2.23;;
7160;SDS011;3622;53.576;9.978;2023-01-28T04:38:35;2.60;;;2.40;;
7160;SDS011;3622;53.576;9.978;2023-01-28T04:41:01;2.87;;;2.67;;
7160;SDS011;3622;53.576;9.978;2023-01-28T04:43:27;2.93;;;2.70;;
7160;SDS011;3622;53.576;9.978;2023-01-28T04:45:53;2.50;;;2.40;;
7160;SDS011;3622;53.576;9.978;2023-01-28T04:48:19;3.07;;;2.77;;
7160;SDS011;3622;53.576;9.978;2023-01-28T04:50:45;3.03;;;2.83;;
7160;SDS011;3622;53.576;9.978;2023-01-28T04:53:11;3.23;;;3.03;;
7160;SDS011;3622;53.576;9.978;2023-01-28T04:55:37;4.10;;;2.90;;
7160;SDS011;3622;53.576;9.978;2023-01-28T04:58:03;3.13;;;2.93;;
7160;SDS011;3622;53.576;9.978;2023-01-28T05:00:29;3.20;;;3.00;;
7160;SDS011;3622;53.576;9.978;2023-01-28T05:02:55;2.43;;;2.23;;
7160;SDS011;3622;53.576;9.978;2023-01-28T05:05:21;2.97;;;2.77;;
7160;SDS011;3622;53.576;9.978;2023-01-28T05:07:54;4.00;;;3.13;;
7160;SDS011;3622;53.576;9.978;2023-01-28T05:10:21;2.90;;;2.70;;
7160;SDS011;3622;53.576;9.978;2023-01-28T05:12:47;3.10;;;2.80;;
7160;SDS011;3622;53.576;9.978;2023-01-28T05:15:16;3.47;;;3.17;;
7160;SDS011;3622;53.576;9.978;2023-01-28T05:17:43;5.67;;;3.50;;
7160;SDS011;3622;53.576;9.978;2023-01-28T05:20:10;3.30;;;2.93;;
7160;SDS011;3622;53.576;9.978;2023-01-28T05:22:36;3.90;;;3.27;;
7160;SDS011;3622;53.576;9.978;2023-01-28T05:25:02;4.70;;;3.80;;
7160;SDS011;3622;53.576;9.978;2023-01-28T05:27:28;4.70;;;3.83;;
7160;SDS011;3622;53.576;9.978;2023-01-28T05:29:55;3.93;;;3.53;;
7160;SDS011;3622;53.576;9.978;2023-01-28T05:32:21;4.63;;;3.53;;
7160;SDS011;3622;53.576;9.978;2023-01-28T05:34:47;3.57;;;3.33;;
7160;SDS011;3622;53.576;9.978;2023-01-28T05:37:13;4.80;;;3.10;;
7160;SDS011;3622;53.576;9.978;2023-01-28T05:39:38;6.03;;;3.80;;
7160;SDS011;3622;53.576;9.978;2023-01-28T05:42:04;4.10;;;3.77;;
7160;SDS011;3622;53.576;9.978;2023-01-28T05:44:30;4.33;;;3.90;;
7160;SDS011;3622;53.576;9.978;2023-01-28T05:46:56;4.10;;;3.90;;
7160;SDS011;3622;53.576;9.978;2023-01-28T05:49:22;5.07;;;4.67;;
7160;SDS011;3622;53.576;9.978;2023-01-28T05:51:50;4.40;;;4.10;;
7160;SDS011;3622;53.576;9.978;2023-01-28T05:54:16;5.30;;;4.80;;
7160;SDS011;3622;53.576;9.978;2023-01-28T05:56:42;5.40;;;4.20;;
7160;SDS011;3622;53.576;9.978;2023-01-28T05:59:11;16.40;;;9.17;;
7160;SDS011;3622;53.576;9.978;2023-01-28T06:01:37;6.80;;;6.20;;
7160;SDS011;3622;53.576;9.978;2023-01-28T06:04:04;6.37;;;5.07;;
7160;SDS011;3622;53.576;9.978;2023-01-28T06:06:29;9.97;;;7.33;;
7160;SDS011;3622;53.576;9.978;2023-01-28T06:08:55;6.83;;;5.60;;
7160;SDS011;3622;53.576;9.978;2023-01-28T06:11:21;7.57;;;5.83;;
7160;SDS011;3622;53.576;9.978;2023-01-28T06:13:47;10.50;;;7.23;;
7160;SDS011;3622;53.576;9.978;2023-01-28T06:16:13;6.30;;;5.70;;
7160;SDS011;3622;53.576;9.978;2023-01-28T06:18:39;8.90;;;5.30;;
7160;SDS011;3622;53.576;9.978;2023-01-28T06:21:05;9.33;;;7.10;;
7160;SDS011;3622;53.576;9.978;2023-01-28T06:23:32;11.50;;;7.53;;
7160;SDS011;3622;53.576;9.978;2023-01-28T06:25:58;7.10;;;6.23;;
7160;SDS011;3622;53.576;9.978;2023-01-28T06:28:25;33.63;;;18.30;;
7160;SDS011;3622;53.576;9.978;2023-01-28T06:30:51;23.00;;;12.60;;
7160;SDS011;3622;53.576;9.978;2023-01-28T06:33:18;21.80;;;13.13;;
7160;SDS011;3622;53.576;9.978;2023-01-28T06:35:45;9.10;;;6.77;;
7160;SDS011;3622;53.576;9.978;2023-01-28T06:38:12;10.03;;;7.47;;
7160;SDS011;3622;53.576;9.978;2023-01-28T06:40:38;31.73;;;15.30;;
7160;SDS011;3622;53.576;9.978;2023-01-28T06:43:04;21.60;;;11.30;;
7160;SDS011;3622;53.576;9.978;2023-01-28T06:45:30;10.80;;;7.10;;
7160;SDS011;3622;53.576;9.978;2023-01-28T06:47:57;7.97;;;7.07;;
7160;SDS011;3622;53.576;9.978;2023-01-28T06:50:23;8.53;;;7.00;;
7160;SDS011;3622;53.576;9.978;2023-01-28T06:52:49;8.00;;;7.00;;
7160;SDS011;3622;53.576;9.978;2023-01-28T06:55:15;8.37;;;6.63;;
7160;SDS011;3622;53.576;9.978;2023-01-28T06:57:41;7.70;;;6.50;;
7160;SDS011;3622;53.576;9.978;2023-01-28T07:00:10;13.33;;;7.17;;
7160;SDS011;3622;53.576;9.978;2023-01-28T07:02:38;9.07;;;6.73;;
7160;SDS011;3622;53.576;9.978;2023-01-28T07:05:04;8.47;;;7.00;;
7160;SDS011;3622;53.576;9.978;2023-01-28T07:07:31;8.60;;;6.70;;
7160;SDS011;3622;53.576;9.978;2023-01-28T07:09:57;7.70;;;6.90;;
7160;SDS011;3622;53.576;9.978;2023-01-28T07:12:23;9.97;;;7.13;;
7160;SDS011;3622;53.576;9.978;2023-01-28T07:14:49;11.50;;;7.20;;
7160;SDS011;3622;53.576;9.978;2023-01-28T07:17:15;11.93;;;7.80;;
7160;SDS011;3622;53.576;9.978;2023-01-28T07:19:41;11.93;;;8.17;;
7160;SDS011;3622;53.576;9.978;2023-01-28T07:22:07;9.10;;;7.77;;
7160;SDS011;3622;53.576;9.978;2023-01-28T07:24:33;10.70;;;8.10;;
7160;SDS011;3622;53.576;9.978;2023-01-28T07:26:59;11.93;;;8.53;;
7160;SDS011;3622;53.576;9.978;2023-01-28T07:29:25;11.50;;;8.30;;
7160;SDS011;3622;53.576;9.978;2023-01-28T07:31:51;13.40;;;8.00;;
7160;SDS011;3622;53.576;9.978;2023-01-28T07:34:17;8.63;;;7.60;;
7160;SDS011;3622;53.576;9.978;2023-01-28T07:36:43;9.37;;;8.30;;
7160;SDS011;3622;53.576;9.978;2023-01-28T07:39:09;11.00;;;8.23;;
7160;SDS011;3622;53.576;9.978;2023-01-28T07:41:34;12.73;;;8.67;;
7160;SDS011;3622;53.576;9.978;2023-01-28T07:44:00;11.27;;;8.07;;
7160;SDS011;3622;53.576;9.978;2023-01-28T07:46:27;15.07;;;8.10;;
7160;SDS011;3622;53.576;9.978;2023-01-28T07:48:53;11.10;;;8.80;;
7160;SDS011;3622;53.576;9.978;2023-01-28T07:51:19;11.23;;;7.90;;
7160;SDS011;3622;53.576;9.978;2023-01-28T07:53:45;10.63;;;7.60;;
7160;SDS011;3622;53.576;9.978;2023-01-28T07:56:11;12.53;;;8.43;;
7160;SDS011;3622;53.576;9.978;2023-01-28T07:58:37;10.67;;;8.50;;
7160;SDS011;3622;53.576;9.978;2023-01-28T08:01:03;11.37;;;7.60;;
7160;SDS011;3622;53.576;9.978;2023-01-28T08:03:29;15.80;;;8.70;;
7160;SDS011;3622;53.576;9.978;2023-01-28T08:05:55;10.70;;;7.90;;
7160;SDS011;3622;53.576;9.978;2023-01-28T08:08:22;11.00;;;7.63;;
7160;SDS011;3622;53.576;9.978;2023-01-28T08:10:48;12.27;;;7.97;;
7160;SDS011;3622;53.576;9.978;2023-01-28T08:13:14;13.70;;;8.40;;
7160;SDS011;3622;53.576;9.978;2023-01-28T08:15:40;10.80;;;7.70;;
7160;SDS011;3622;53.576;9.978;2023-01-28T08:18:07;11.60;;;8.10;;
7160;SDS011;3622;53.576;9.978;2023-01-28T08:20:34;14.40;;;8.23;;
7160;SDS011;3622;53.576;9.978;2023-01-28T08:23:07;10.90;;;7.83;;
7160;SDS011;3622;53.576;9.978;2023-01-28T08:25:33;12.93;;;8.50;;
7160;SDS011;3622;53.576;9.978;2023-01-28T08:27:59;16.87;;;8.60;;
7160;SDS011;3622;53.576;9.978;2023-01-28T08:30:25;13.20;;;7.80;;
7160;SDS011;3622;53.576;9.978;2023-01-28T08:32:54;11.40;;;7.70;;
7160;SDS011;3622;53.576;9.978;2023-01-28T08:35:20;10.80;;;7.90;;
7160;SDS011;3622;53.576;9.978;2023-01-28T08:37:46;18.60;;;10.33;;
7160;SDS011;3622;53.576;9.978;2023-01-28T08:40:12;11.97;;;8.37;;
7160;SDS011;3622;53.576;9.978;2023-01-28T08:42:38;10.80;;;7.50;;
7160;SDS011;3622;53.576;9.978;2023-01-28T08:45:04;13.20;;;7.70;;
7160;SDS011;3622;53.576;9.978;2023-01-28T08:47:30;11.00;;;7.80;;
7160;SDS011;3622;53.576;9.978;2023-01-28T08:49:56;14.30;;;8.07;;
7160;SDS011;3622;53.576;9.978;2023-01-28T08:52:22;13.23;;;7.40;;
7160;SDS011;3622;53.576;9.978;2023-01-28T08:54:48;13.63;;;7.97;;
7160;SDS011;3622;53.576;9.978;2023-01-28T08:57:14;11.47;;;8.20;;
7160;SDS011;3622;53.576;9.978;2023-01-28T08:59:40;11.10;;;8.63;;
7160;SDS011;3622;53.576;9.978;2023-01-28T09:02:11;15.40;;;7.93;;
7160;SDS011;3622;53.576;9.978;2023-01-28T09:04:38;11.50;;;8.20;;
7160;SDS011;3622;53.576;9.978;2023-01-28T09:07:06;13.13;;;8.77;;
7160;SDS011;3622;53.576;9.978;2023-01-28T09:09:32;10.87;;;8.33;;
7160;SDS011;3622;53.576;9.978;2023-01-28T09:11:58;15.07;;;8.70;;
7160;SDS011;3622;53.576;9.978;2023-01-28T09:14:24;12.63;;;9.00;;
7160;SDS011;3622;53.576;9.978;2023-01-28T09:16:49;13.00;;;8.33;;
7160;SDS011;3622;53.576;9.978;2023-01-28T09:19:15;11.23;;;8.50;;
7160;SDS011;3622;53.576;9.978;2023-01-28T09:21:41;12.30;;;7.97;;
7160;SDS011;3622;53.576;9.978;2023-01-28T09:24:10;10.40;;;7.80;;
7160;SDS011;3622;53.576;9.978;2023-01-28T09:26:36;12.97;;;8.37;;
7160;SDS011;3622;53.576;9.978;2023-01-28T09:29:02;9.47;;;7.80;;
7160;SDS011;3622;53.576;9.978;2023-01-28T09:31:28;11.50;;;8.17;;
7160;SDS011;3622;53.576;9.978;2023-01-28T09:33:54;9.53;;;7.77;;
7160;SDS011;3622;53.576;9.978;2023-01-28T09:36:21;13.43;;;7.90;;
7160;SDS011;3622;53.576;9.978;2023-01-28T09:38:47;8.97;;;7.73;;
7160;SDS011;3622;53.576;9.978;2023-01-28T09:41:24;12.30;;;8.30;;
7160;SDS011;3622;53.576;9.978;2023-01-28T09:46:21;11.33;;;8.23;;
7160;SDS011;3622;53.576;9.978;2023-01-28T09:48:51;8.93;;;7.57;;
7160;SDS011;3622;53.576;9.978;2023-01-28T09:54:03;11.23;;;7.13;;
7160;SDS011;3622;53.576;9.978;2023-01-28T09:56:33;7.63;;;6.90;;
7160;SDS011;3622;53.576;9.978;2023-01-28T09:59:09;10.53;;;6.30;;
7160;SDS011;3622;53.576;9.978;2023-01-28T10:01:57;8.07;;;7.13;;
7160;SDS011;3622;53.576;9.978;2023-01-28T10:04:26;7.80;;;7.10;;
7160;SDS011;3622;53.576;9.978;2023-01-28T10:07:01;7.63;;;6.87;;
7160;SDS011;3622;53.576;9.978;2023-01-28T10:09:48;8.80;;;7.17;;
7160;SDS011;3622;53.576;9.978;2023-01-28T10:17:30;6.73;;;6.03;;
7160;SDS011;3622;53.576;9.978;2023-01-28T10:20:00;6.83;;;6.27;;
7160;SDS011;3622;53.576;9.978;2023-01-28T10:22:38;6.30;;;5.80;;
7160;SDS011;3622;53.576;9.978;2023-01-28T10:25:06;5.90;;;5.40;;
7160;SDS011;3622;53.576;9.978;2023-01-28T10:27:39;6.43;;;5.77;;
7160;SDS011;3622;53.576;9.978;2023-01-28T10:30:14;6.07;;;5.50;;
7160;SDS011;3622;53.576;9.978;2023-01-28T10:32:42;6.47;;;5.50;;
7160;SDS011;3622;53.576;9.978;2023-01-28T10:35:11;6.07;;;5.50;;
7160;SDS011;3622;53.576;9.978;2023-01-28T10:37:37;7.73;;;5.53;;
7160;SDS011;3622;53.576;9.978;2023-01-28T10:40:04;6.80;;;6.07;;
7160;SDS011;3622;53.576;9.978;2023-01-28T10:42:37;7.13;;;6.43;;
7160;SDS011;3622;53.576;9.978;2023-01-28T10:48:33;14.87;;;8.10;;
7160;SDS011;3622;53.576;9.978;2023-01-28T10:50:34;8.20;;;6.43;;
7160;SDS011;3622;53.576;9.978;2023-01-28T10:53:01;11.73;;;7.20;;
7160;SDS011;3622;53.576;9.978;2023-01-28T10:55:29;14.30;;;7.60;;
7160;SDS011;3622;53.576;9.978;2023-01-28T10:57:55;10.80;;;7.43;;
7160;SDS011;3622;53.576;9.978;2023-01-28T11:00:25;10.90;;;7.23;;
7160;SDS011;3622;53.576;9.978;2023-01-28T11:02:54;27.33;;;9.97;;
7160;SDS011;3622;53.576;9.978;2023-01-28T11:05:25;10.83;;;7.63;;
7160;SDS011;3622;53.576;9.978;2023-01-28T11:10:30;11.67;;;8.13;;
7160;SDS011;3622;53.576;9.978;2023-01-28T11:12:58;15.70;;;8.57;;
7160;SDS011;3622;53.576;9.978;2023-01-28T11:15:25;14.20;;;7.97;;
7160;SDS011;3622;53.576;9.978;2023-01-28T11:17:55;12.90;;;8.73;;
7160;SDS011;3622;53.576;9.978;2023-01-28T11:20:23;11.40;;;8.23;;
7160;SDS011;3622;53.576;9.978;2023-01-28T11:22:50;12.53;;;7.90;;
7160;SDS011;3622;53.576;9.978;2023-01-28T11:25:25;10.37;;;7.80;;
7160;SDS011;3622;53.576;9.978;2023-01-28T11:27:52;8.83;;;7.27;;
7160;SDS011;3622;53.576;9.978;2023-01-28T11:30:23;11.60;;;8.33;;
7160;SDS011;3622;53.576;9.978;2023-01-28T11:32:57;9.50;;;6.77;;
7160;SDS011;3622;53.576;9.978;2023-01-28T11:35:26;10.67;;;7.00;;
7160;SDS011;3622;53.576;9.978;2023-01-28T11:37:54;13.97;;;8.10;;
7160;SDS011;3622;53.576;9.978;2023-01-28T11:40:20;14.77;;;8.50;;
7160;SDS011;3622;53.576;9.978;2023-01-28T11:42:46;10.33;;;8.13;;
7160;SDS011;3622;53.576;9.978;2023-01-28T11:45:16;9.67;;;7.63;;
7160;SDS011;3622;53.576;9.978;2023-01-28T11:47:45;12.03;;;8.30;;
7160;SDS011;3622;53.576;9.978;2023-01-28T11:50:24;13.20;;;7.60;;
7160;SDS011;3622;53.576;9.978;2023-01-28T11:58:19;17.60;;;8.80;;
7160;SDS011;3622;53.576;9.978;2023-01-28T12:03:31;16.90;;;9.07;;
7160;SDS011;3622;53.576;9.978;2023-01-28T12:14:13;11.60;;;8.13;;
7160;SDS011;3622;53.576;9.978;2023-01-28T12:16:46;14.27;;;9.33;;
7160;SDS011;3622;53.576;9.978;2023-01-28T12:19:24;13.47;;;9.53;;
7160;SDS011;3622;53.576;9.978;2023-01-28T12:22:10;11.77;;;8.27;;
7160;SDS011;3622;53.576;9.978;2023-01-28T12:24:48;14.73;;;9.30;;
7160;SDS011;3622;53.576;9.978;2023-01-28T12:32:23;12.50;;;8.60;;
7160;SDS011;3622;53.576;9.978;2023-01-28T12:37:49;13.47;;;8.40;;
7160;SDS011;3622;53.576;9.978;2023-01-28T12:42:45;13.23;;;7.53;;
7160;SDS011;3622;53.576;9.978;2023-01-28T12:47:44;17.90;;;8.97;;
7160;SDS011;3622;53.576;9.978;2023-01-28T12:50:20;14.23;;;8.90;;
7160;SDS011;3622;53.576;9.978;2023-01-28T12:53:18;12.10;;;8.67;;
7160;SDS011;3622;53.576;9.978;2023-01-28T12:55:47;14.83;;;9.43;;
7160;SDS011;3622;53.576;9.978;2023-01-28T12:58:35;17.70;;;9.40;;
7160;SDS011;3622;53.576;9.978;2023-01-28T13:01:01;14.67;;;9.10;;
7160;SDS011;3622;53.576;9.978;2023-01-28T13:03:33;14.57;;;8.83;;
7160;SDS011;3622;53.576;9.978;2023-01-28T13:06:05;12.70;;;9.13;;
7160;SDS011;3622;53.576;9.978;2023-01-28T13:08:33;14.93;;;9.47;;
7160;SDS011;3622;53.576;9.978;2023-01-28T13:11:00;16.50;;;9.40;;
7160;SDS011;3622;53.576;9.978;2023-01-28T13:13:34;14.87;;;10.00;;
7160;SDS011;3622;53.576;9.978;2023-01-28T13:16:01;15.83;;;9.63;;
7160;SDS011;3622;53.576;9.978;2023-01-28T13:24:36;20.27;;;10.10;;
7160;SDS011;3622;53.576;9.978;2023-01-28T13:29:17;17.07;;;11.07;;
7160;SDS011;3622;53.576;9.978;2023-01-28T13:31:44;19.83;;;10.93;;
7160;SDS011;3622;53.576;9.978;2023-01-28T13:34:25;17.33;;;9.53;;
7160;SDS011;3622;53.576;9.978;2023-01-28T13:36:51;23.73;;;11.10;;
7160;SDS011;3622;53.576;9.978;2023-01-28T13:39:18;19.33;;;10.77;;
7160;SDS011;3622;53.576;9.978;2023-01-28T13:41:47;14.67;;;9.93;;
7160;SDS011;3622;53.576;9.978;2023-01-28T13:44:31;18.17;;;10.57;;
7160;SDS011;3622;53.576;9.978;2023-01-28T13:52:05;19.43;;;10.33;;
7160;SDS011;3622;53.576;9.978;2023-01-28T13:54:33;20.83;;;11.50;;
7160;SDS011;3622;53.576;9.978;2023-01-28T13:59:30;15.93;;;10.03;;
7160;SDS011;3622;53.576;9.978;2023-01-28T14:04:48;17.87;;;10.73;;
7160;SDS011;3622;53.576;9.978;2023-01-28T14:10:04;19.40;;;10.67;;
7160;SDS011;3622;53.576;9.978;2023-01-28T14:19:55;23.40;;;12.00;;
7160;SDS011;3622;53.576;9.978;2023-01-28T14:22:22;27.57;;;11.40;;
7160;SDS011;3622;53.576;9.978;2023-01-28T14:24:48;18.77;;;11.13;;
7160;SDS011;3622;53.576;9.978;2023-01-28T14:32:14;19.00;;;10.50;;
7160;SDS011;3622;53.576;9.978;2023-01-28T14:34:40;17.70;;;9.73;;
7160;SDS011;3622;53.576;9.978;2023-01-28T14:37:07;23.43;;;13.53;;
7160;SDS011;3622;53.576;9.978;2023-01-28T14:39:50;19.47;;;10.50;;
7160;SDS011;3622;53.576;9.978;2023-01-28T14:42:20;17.10;;;9.70;;
7160;SDS011;3622;53.576;9.978;2023-01-28T14:44:50;16.80;;;10.10;;
7160;SDS011;3622;53.576;9.978;2023-01-28T14:47:22;23.23;;;11.03;;
7160;SDS011;3622;53.576;9.978;2023-01-28T14:50:03;23.87;;;10.40;;
7160;SDS011;3622;53.576;9.978;2023-01-28T14:55:22;15.90;;;9.40;;
7160;SDS011;3622;53.576;9.978;2023-01-28T14:57:51;17.23;;;9.10;;
7160;SDS011;3622;53.576;9.978;2023-01-28T15:00:25;18.00;;;10.40;;
7160;SDS011;3622;53.576;9.978;2023-01-28T15:02:52;25.13;;;10.67;;
7160;SDS011;3622;53.576;9.978;2023-01-28T15:05:27;30.53;;;12.83;;
7160;SDS011;3622;53.576;9.978;2023-01-28T15:07:54;20.90;;;10.10;;
7160;SDS011;3622;53.576;9.978;2023-01-28T15:12:51;16.90;;;9.53;;
7160;SDS011;3622;53.576;9.978;2023-01-28T15:15:51;19.70;;;10.50;;
7160;SDS011;3622;53.576;9.978;2023-01-28T15:20:36;17.13;;;10.03;;
7160;SDS011;3622;53.576;9.978;2023-01-28T15:23:05;21.17;;;11.23;;
7160;SDS011;3622;53.576;9.978;2023-01-28T15:25:31;18.10;;;10.37;;
7160;SDS011;3622;53.576;9.978;2023-01-28T15:27:58;16.37;;;9.90;;
7160;SDS011;3622;53.576;9.978;2023-01-28T15:30:26;20.20;;;10.33;;
7160;SDS011;3622;53.576;9.978;2023-01-28T15:32:56;22.67;;;10.57;;
7160;SDS011;3622;53.576;9.978;2023-01-28T15:35:23;21.47;;;10.67;;
7160;SDS011;3622;53.576;9.978;2023-01-28T15:37:49;19.90;;;9.77;;
7160;SDS011;3622;53.576;9.978;2023-01-28T15:40:18;16.10;;;9.63;;
7160;SDS011;3622;53.576;9.978;2023-01-28T15:42:45;18.60;;;10.30;;
7160;SDS011;3622;53.576;9.978;2023-01-28T15:45:15;18.13;;;10.23;;
7160;SDS011;3622;53.576;9.978;2023-01-28T15:47:41;24.60;;;10.97;;
7160;SDS011;3622;53.576;9.978;2023-01-28T15:50:07;17.33;;;10.13;;
7160;SDS011;3622;53.576;9.978;2023-01-28T15:52:39;17.83;;;9.87;;
7160;SDS011;3622;53.576;9.978;2023-01-28T15:55:27;15.33;;;9.57;;
7160;SDS011;3622;53.576;9.978;2023-01-28T15:57:55;16.87;;;9.73;;
7160;SDS011;3622;53.576;9.978;2023-01-28T16:00:21;17.87;;;9.93;;
7160;SDS011;3622;53.576;9.978;2023-01-28T16:02:57;19.47;;;10.40;;
7160;SDS011;3622;53.576;9.978;2023-01-28T16:05:35;18.07;;;9.47;;
7160;SDS011;3622;53.576;9.978;2023-01-28T16:08:19;25.00;;;11.87;;
7160;SDS011;3622;53.576;9.978;2023-01-28T16:10:51;26.90;;;12.87;;
7160;SDS011;3622;53.576;9.978;2023-01-28T16:13:21;24.63;;;11.70;;
7160;SDS011;3622;53.576;9.978;2023-01-28T16:15:51;19.07;;;9.87;;
7160;SDS011;3622;53.576;9.978;2023-01-28T16:20:52;25.73;;;11.47;;
7160;SDS011;3622;53.576;9.978;2023-01-28T16:23:22;20.77;;;10.60;;
7160;SDS011;3622;53.576;9.978;2023-01-28T16:26:06;20.83;;;11.67;;
7160;SDS011;3622;53.576;9.978;2023-01-28T16:28:44;21.20;;;10.20;;
7160;SDS011;3622;53.576;9.978;2023-01-28T16:31:10;20.70;;;11.17;;
7160;SDS011;3622;53.576;9.978;2023-01-28T16:33:36;20.90;;;10.90;;
7160;SDS011;3622;53.576;9.978;2023-01-28T16:36:02;20.73;;;10.40;;
7160;SDS011;3622;53.576;9.978;2023-01-28T16:38:29;18.60;;;10.40;;
7160;SDS011;3622;53.576;9.978;2023-01-28T16:40:54;21.63;;;10.40;;
7160;SDS011;3622;53.576;9.978;2023-01-28T16:43:23;20.73;;;10.07;;
7160;SDS011;3622;53.576;9.978;2023-01-28T16:45:49;25.97;;;13.30;;
7160;SDS011;3622;53.576;9.978;2023-01-28T16:48:15;23.63;;;10.93;;
7160;SDS011;3622;53.576;9.978;2023-01-28T16:50:41;20.97;;;11.83;;
7160;SDS011;3622;53.576;9.978;2023-01-28T16:53:14;22.57;;;10.27;;
7160;SDS011;3622;53.576;9.978;2023-01-28T16:55:42;20.67;;;10.33;;
7160;SDS011;3622;53.576;9.978;2023-01-28T16:58:08;20.93;;;11.47;;
7160;SDS011;3622;53.576;9.978;2023-01-28T17:00:34;23.13;;;11.10;;
7160;SDS011;3622;53.576;9.978;2023-01-28T17:03:00;20.10;;;10.73;;
7160;SDS011;3622;53.576;9.978;2023-01-28T17:05:26;18.73;;;10.30;;
7160;SDS011;3622;53.576;9.978;2023-01-28T17:07:52;22.30;;;10.40;;